Time;durP1;ratioP1;P1;durP2;ratioP2;P2;SDS_P1;SDS_P2;PMS_P1;PMS_P2;Temp;Humidity;BMP_temperature;BMP_pressure;BME280_temperature;BME280_humidity;BME280_pressure;Samples;Min_cycle;Max_cycle;Signal;HPM_P1;HPM_P2
2022/02/17 00:02:12;;;;;;;7.60;2.50;;;;;;;8.43;64.44;97702.10;107569;1274;108867;-69
2022/02/17 00:04:44;;;;;;;3.60;2.20;;;;;;;8.40;64.48;97675.24;106403;1273;138027;-68
2022/02/17 00:07:18;;;;;;;5.90;2.30;;;;;;;8.41;64.56;97665.88;105948;1273;97861;-69
2022/02/17 00:09:50;;;;;;;3.00;2.10;;;;;;;8.41;64.83;97658.08;106070;1273;138197;-69
2022/02/17 00:12:22;;;;;;;3.50;2.10;;;;;;;8.41;64.98;97657.03;106066;1273;107815;-69
2022/02/17 00:14:54;;;;;;;3.40;2.20;;;;;;;8.43;64.89;97646.70;106105;1273;109435;-69
2022/02/17 00:17:26;;;;;;;3.70;2.60;;;;;;;8.44;64.93;97626.89;105946;1273;137484;-69
2022/02/17 00:19:58;;;;;;;3.90;2.50;;;;;;;8.43;65.07;97631.63;106494;1274;97566;-70
2022/02/17 00:22:30;;;;;;;2.90;2.30;;;;;;;8.42;64.88;97608.14;107532;1273;137452;-70
2022/02/17 00:25:03;;;;;;;3.40;2.20;;;;;;;8.39;65.18;97575.97;107684;1273;108014;-70
2022/02/17 00:27:36;;;;;;;3.80;2.30;;;;;;;8.38;65.29;97586.61;107599;1273;108816;-69
2022/02/17 00:30:11;;;;;;;4.20;2.30;;;;;;;8.36;65.30;97574.95;107417;1273;137374;-69
2022/02/17 00:32:44;;;;;;;3.70;2.20;;;;;;;8.36;65.54;97556.98;107664;1273;96092;-69
2022/02/17 00:35:16;;;;;;;4.30;2.50;;;;;;;8.35;65.59;97536.92;107506;1273;138024;-68
2022/02/17 00:37:47;;;;;;;4.70;2.20;;;;;;;8.35;65.75;97527.20;107660;1273;107828;-69
2022/02/17 00:40:20;;;;;;;5.30;2.20;;;;;;;8.37;65.64;97513.27;107443;1274;137971;-69
2022/02/17 00:42:52;;;;;;;3.90;2.30;;;;;;;8.36;65.85;97533.42;107618;1273;96065;-69
2022/02/17 00:45:26;;;;;;;3.50;2.30;;;;;;;8.35;65.78;97527.56;107609;1274;95977;-69
2022/02/17 00:47:59;;;;;;;3.40;2.30;;;;;;;8.34;66.01;97529.02;107543;1273;138472;-69
2022/02/17 00:50:34;;;;;;;3.50;2.00;;;;;;;8.35;65.93;97531.06;107531;1273;108833;-69
2022/02/17 00:53:06;;;;;;;3.40;2.10;;;;;;;8.35;65.83;97534.50;107546;1273;137645;-69
2022/02/17 00:55:38;;;;;;;3.50;2.10;;;;;;;8.36;66.10;97513.29;107622;1273;96104;-69
2022/02/17 00:58:10;;;;;;;2.80;1.90;;;;;;;8.37;66.17;97516.20;107496;1273;138371;-68
2022/02/17 01:00:42;;;;;;;2.90;1.80;;;;;;;8.39;66.07;97504.44;107623;1273;112560;-68
2022/02/17 01:03:16;;;;;;;2.70;1.60;;;;;;;8.41;66.20;97513.18;107594;1273;107769;-68
2022/02/17 01:05:48;;;;;;;3.00;2.00;;;;;;;8.41;66.09;97496.00;107536;1273;138170;-69
2022/02/17 01:08:20;;;;;;;2.40;1.70;;;;;;;8.42;66.06;97501.84;107669;1273;96032;-68
2022/02/17 01:10:52;;;;;;;4.20;2.30;;;;;;;8.41;66.15;97493.02;107462;1273;138919;-68
2022/02/17 01:13:25;;;;;;;2.60;2.00;;;;;;;8.41;66.24;97483.16;106833;1273;111762;-68
2022/02/17 01:15:57;;;;;;;4.30;2.00;;;;;;;8.39;66.51;97455.80;105924;1275;137886;-69
2022/02/17 01:18:29;;;;;;;3.90;1.90;;;;;;;8.38;66.86;97425.27;106089;1273;108933;-68
2022/02/17 01:21:01;;;;;;;4.50;1.90;;;;;;;8.33;67.69;97379.69;106109;1274;97947;-69
2022/02/17 01:23:35;;;;;;;2.50;1.90;;;;;;;8.26;67.85;97357.34;106016;1273;138323;-70
2022/02/17 01:26:07;;;;;;;2.60;1.90;;;;;;;8.23;67.78;97338.33;106107;1273;111502;-68
2022/02/17 01:28:48;;;;;;;2.10;1.80;;;;;;;8.20;67.73;97321.35;105902;1273;138302;-68
2022/02/17 01:31:21;;;;;;;3.10;2.10;;;;;;;8.17;67.70;97301.17;106050;1276;107816;-68
2022/02/17 01:34:02;;;;;;;3.70;2.10;;;;;;;8.13;67.37;97287.92;105934;1275;138460;-68
2022/02/17 01:36:35;;;;;;;2.90;2.20;;;;;;;8.11;67.68;97302.13;106066;1273;97817;-69
2022/02/17 01:39:07;;;;;;;3.00;2.20;;;;;;;8.09;67.64;97314.00;106085;1273;112582;-68
2022/02/17 01:41:40;;;;;;;3.20;1.90;;;;;;;8.09;67.71;97312.60;106006;1271;137940;-68
2022/02/17 01:44:16;;;;;;;;;;;;;;;8.11;67.66;97320.98;106152;1273;108934;-68
2022/02/17 01:46:49;;;;;;;4.10;2.30;;;;;;;8.09;67.71;97288.91;106023;1273;125027;-67
2022/02/17 01:49:21;;;;;;;3.60;2.40;;;;;;;8.07;67.89;97285.23;106074;1273;97829;-69
2022/02/17 01:51:55;;;;;;;4.70;2.70;;;;;;;8.05;67.83;97273.75;105945;1273;138143;-69
2022/02/17 01:54:27;;;;;;;4.20;2.30;;;;;;;8.03;67.78;97247.48;105939;1273;107866;-69
2022/02/17 01:57:00;;;;;;;4.40;2.70;;;;;;;8.01;67.85;97248.99;105814;1275;108618;-70
2022/02/17 01:59:35;;;;;;;2.50;2.30;;;;;;;8.00;67.97;97211.71;105847;1273;138550;-70
2022/02/17 02:02:13;;;;;;;4.10;2.80;;;;;;;7.99;68.10;97216.61;105990;1273;97889;-70
2022/02/17 02:39:52;;;;;;;4.80;2.90;;;;;;;6.94;78.59;97096.45;105532;1276;97762;-68
2022/02/17 02:42:24;;;;;;;4.20;2.70;;;;;;;6.89;79.19;97069.33;105742;1276;138370;-69
2022/02/17 02:44:56;;;;;;;4.40;2.90;;;;;;;6.84;79.71;97068.79;105997;1276;107717;-69
2022/02/17 02:47:28;;;;;;;4.00;2.70;;;;;;;6.83;78.94;97059.38;105832;1276;138393;-69
2022/02/17 02:50:00;;;;;;;4.00;2.90;;;;;;;6.83;79.55;97025.73;105921;1276;97564;-69
2022/02/17 02:52:33;;;;;;;5.40;3.20;;;;;;;6.83;80.23;97036.92;105982;1277;97903;-69
2022/02/17 02:55:06;;;;;;;3.80;2.60;;;;;;;6.84;80.46;97016.66;105861;1276;138967;-70
2022/02/17 02:57:39;;;;;;;4.10;2.50;;;;;;;6.85;80.71;97002.63;107525;1276;107907;-70
2022/02/17 03:00:14;;;;;;;3.80;2.50;;;;;;;6.85;81.03;96997.06;107211;1276;138459;-70
2022/02/17 03:02:46;;;;;;;5.50;2.70;;;;;;;6.86;81.36;96995.95;107416;1276;96332;-70
2022/02/17 03:05:18;;;;;;;3.80;2.90;;;;;;;6.86;81.58;96977.34;107385;1276;138630;-69
2022/02/17 03:07:52;;;;;;;7.40;2.70;;;;;;;6.84;82.26;96982.08;107310;1277;112844;-69
2022/02/17 03:10:27;;;;;;;4.30;2.90;;;;;;;6.82;82.63;96977.40;107345;1276;107579;-69
2022/02/17 03:13:00;;;;;;;5.40;2.50;;;;;;;6.78;83.66;96957.12;107191;1277;138463;-69
2022/02/17 03:15:35;;;;;;;5.00;3.10;;;;;;;6.77;84.04;96954.32;107300;1276;96386;-69
2022/02/17 03:18:07;;;;;;;6.20;2.50;;;;;;;6.77;84.05;96944.08;106107;1276;138498;-69
2022/02/17 03:20:40;;;;;;;3.60;2.50;;;;;;;6.76;85.29;96951.25;105864;1276;113106;-69
2022/02/17 03:23:13;;;;;;;5.20;2.80;;;;;;;6.74;84.40;96941.85;107181;1276;139324;-70
2022/02/17 03:25:45;;;;;;;4.20;2.30;;;;;;;6.74;84.61;96946.53;107357;1276;107760;-69
2022/02/17 03:28:22;;;;;;;3.90;2.20;;;;;;;6.77;86.00;96948.72;106349;1278;97981;-68
2022/02/17 03:31:08;;;;;;;2.80;2.10;;;;;;;6.81;86.24;96916.17;105836;1276;137926;-69
2022/02/17 03:33:52;;;;;;;3.00;2.60;;;;;;;6.82;86.00;96910.42;105925;1276;112032;-69
2022/02/17 03:36:27;;;;;;;2.50;1.90;;;;;;;6.84;86.78;96936.05;105811;1276;139536;-68
2022/02/17 03:39:03;;;;;;;3.00;2.00;;;;;;;6.87;87.50;96909.01;107356;1276;111968;-69
2022/02/17 03:41:52;;;;;;;3.50;2.20;;;;;;;6.89;87.91;96913.05;107077;1277;138993;-69
2022/02/17 03:44:27;;;;;;;2.20;1.70;;;;;;;6.93;88.00;96899.40;107254;1277;96294;-70
2022/02/17 03:47:09;;;;;;;2.50;1.80;;;;;;;6.96;88.30;96877.42;107099;1277;139364;-69
2022/02/17 03:50:12;;;;;;;3.00;1.90;;;;;;;7.01;88.39;96875.41;107097;1278;106941;-69
2022/02/17 03:52:44;;;;;;;1.90;1.50;;;;;;;7.05;88.51;96855.59;107183;1276;108897;-70
2022/02/17 03:55:22;;;;;;;3.60;1.70;;;;;;;7.10;88.37;96857.24;107192;1277;138998;-69
2022/02/17 03:57:54;;;;;;;2.00;1.40;;;;;;;7.16;88.17;96842.66;107175;1277;96263;-70
2022/02/17 04:00:28;;;;;;;2.00;1.50;;;;;;;7.21;88.66;96812.26;107190;1276;138351;-70
2022/02/17 04:03:04;;;;;;;1.70;1.60;;;;;;;7.26;88.72;96822.23;107372;1277;108652;-69
2022/02/17 04:05:39;;;;;;;1.50;1.10;;;;;;;7.31;89.34;96806.66;105826;1278;138507;-68
2022/02/17 04:08:11;;;;;;;1.70;1.10;;;;;;;7.35;89.65;96801.55;106884;1278;96038;-68
2022/02/17 04:10:47;;;;;;;1.30;1.00;;;;;;;7.39;89.92;96804.52;107269;1277;96222;-68
2022/02/17 04:13:25;;;;;;;1.90;1.20;;;;;;;7.43;89.96;96768.64;107158;1277;137916;-69
2022/02/17 04:15:57;;;;;;;3.80;1.50;;;;;;;7.48;89.25;96761.48;106545;1277;106425;-69
2022/02/17 04:18:36;;;;;;;1.30;1.20;;;;;;;7.51;88.84;96770.77;107076;1277;138494;-69
2022/02/17 04:21:30;;;;;;;2.50;1.50;;;;;;;7.54;88.66;96772.63;107337;1277;97099;-70
2022/02/17 04:24:11;;;;;;;2.00;1.30;;;;;;;7.58;88.70;96761.30;106965;1277;137278;-69
2022/02/17 04:26:55;;;;;;;2.00;1.30;;;;;;;7.61;89.31;96721.64;106201;1276;112304;-70
2022/02/17 04:29:37;;;;;;;1.80;1.60;;;;;;;7.64;88.80;96759.59;105782;1276;138448;-71
2022/02/17 04:32:12;;;;;;;2.50;1.50;;;;;;;7.67;88.89;96738.96;105837;1278;107943;-69
2022/02/17 04:34:44;;;;;;;2.20;1.30;;;;;;;7.66;89.91;96713.79;105878;1276;97954;-69
2022/02/17 04:37:17;;;;;;;1.50;1.30;;;;;;;7.64;89.92;96711.04;105780;1277;138162;-68
2022/02/17 04:39:48;;;;;;;1.70;1.40;;;;;;;7.64;89.50;96702.55;105871;1276;112335;-69
2022/02/17 04:42:24;;;;;;;2.10;1.40;;;;;;;7.66;88.89;96713.15;105830;1277;138976;-67
2022/02/17 04:44:59;;;;;;;1.20;1.10;;;;;;;7.67;88.50;96715.46;106710;1279;107284;-69
2022/02/17 04:47:31;;;;;;;2.90;1.30;;;;;;;7.69;89.33;96681.22;105715;1278;138401;-69
2022/02/17 04:50:04;;;;;;;3.40;1.60;;;;;;;7.72;89.24;96654.52;105889;1276;97865;-70
2022/02/17 04:52:40;;;;;;;1.80;1.50;;;;;;;7.76;89.01;96687.94;107183;1279;112662;-70
2022/02/17 04:55:12;;;;;;;2.00;1.60;;;;;;;7.81;89.39;96688.40;107288;1276;138150;-70
2022/02/17 04:57:46;;;;;;;2.70;1.40;;;;;;;7.85;89.38;96669.42;106399;1278;109019;-69
2022/02/17 05:00:19;;;;;;;2.00;1.60;;;;;;;7.87;89.16;96651.09;105736;1277;139065;-69
2022/02/17 05:02:56;;;;;;;1.60;1.40;;;;;;;7.90;88.74;96653.63;105863;1279;97873;-69
2022/02/17 05:05:43;;;;;;;1.70;1.40;;;;;;;7.94;89.54;96655.98;105873;1276;138551;-71
2022/02/17 05:08:15;;;;;;;2.70;1.80;;;;;;;7.96;89.01;96653.77;106017;1276;108869;-69
2022/02/17 05:10:47;;;;;;;2.30;1.70;;;;;;;7.99;88.75;96665.10;105934;1276;108950;-69
2022/02/17 05:13:19;;;;;;;3.60;1.70;;;;;;;8.04;88.57;96667.06;105847;1276;138360;-69
2022/02/17 05:15:51;;;;;;;1.50;1.40;;;;;;;8.13;88.47;96696.27;105861;1276;97926;-69
2022/02/17 05:18:24;;;;;;;2.90;1.60;;;;;;;8.22;88.29;96741.09;105886;1276;138146;-69
2022/02/17 05:20:56;;;;;;;2.00;1.40;;;;;;;8.29;88.04;96719.98;105948;1276;108986;-69
2022/02/17 05:23:33;;;;;;;3.10;1.70;;;;;;;8.36;87.90;96727.39;105816;1276;139816;-71
2022/02/17 05:26:12;;;;;;;2.60;1.60;;;;;;;8.40;87.70;96762.34;105922;1276;97812;-69
2022/02/17 05:29:02;;;;;;;2.00;1.60;;;;;;;8.45;87.72;96793.30;105815;1278;98493;-69
2022/02/17 05:31:54;;;;;;;2.50;1.00;;;;;;;8.45;87.23;96829.52;105553;1276;112658;-69
2022/02/17 05:34:41;;;;;;;4.70;1.10;;;;;;;8.41;84.83;96851.92;105948;1276;108796;-69
2022/02/17 05:37:33;;;;;;;2.30;0.90;;;;;;;8.31;84.01;96841.14;105765;1276;138614;-69
2022/02/17 05:40:32;;;;;;;2.10;0.80;;;;;;;8.13;82.13;96849.05;105776;1276;97827;-70
2022/02/17 05:43:05;;;;;;;1.60;0.60;;;;;;;7.92;79.83;96849.80;105852;1275;139470;-70
2022/02/17 05:45:38;;;;;;;0.90;0.50;;;;;;;7.69;79.54;96864.66;105878;1276;112860;-69
2022/02/17 05:48:09;;;;;;;1.30;0.70;;;;;;;7.52;79.60;96833.27;105907;1276;138655;-70
2022/02/17 05:50:43;;;;;;;0.40;0.40;;;;;;;7.35;79.09;96833.50;107408;1276;109173;-70
2022/02/17 05:53:15;;;;;;;1.60;0.50;;;;;;;7.21;79.21;96791.33;107464;1276;96008;-70
2022/02/17 05:55:47;;;;;;;0.40;0.30;;;;;;;7.09;79.05;96745.77;107286;1277;137801;-70
2022/02/17 05:58:19;;;;;;;1.70;0.70;;;;;;;7.00;79.01;96739.86;107472;1274;111645;-69
2022/02/17 06:00:54;;;;;;;1.30;0.90;;;;;;;6.92;79.08;96763.23;107266;1277;137510;-71
2022/02/17 06:03:26;;;;;;;1.50;0.90;;;;;;;6.86;79.10;96772.65;107446;1276;108468;-69
2022/02/17 06:05:58;;;;;;;1.00;0.60;;;;;;;6.78;79.03;96773.73;107257;1276;139126;-70
2022/02/17 06:08:30;;;;;;;1.70;0.90;;;;;;;6.72;78.96;96762.81;107500;1275;96205;-70
2022/02/17 06:11:02;;;;;;;1.80;0.60;;;;;;;6.67;78.84;96785.59;107440;1276;112973;-70
2022/02/17 06:13:34;;;;;;;2.00;0.70;;;;;;;6.67;79.03;96803.06;107353;1276;137915;-70
2022/02/17 06:16:07;;;;;;;2.90;1.20;;;;;;;6.68;79.18;96823.54;107466;1275;107456;-70
2022/02/17 06:18:39;;;;;;;2.00;0.90;;;;;;;6.66;79.00;96826.27;107318;1275;137442;-70
2022/02/17 06:21:10;;;;;;;2.80;1.00;;;;;;;6.63;78.83;96832.43;107488;1275;95982;-70
2022/02/17 06:23:42;;;;;;;1.70;0.90;;;;;;;6.61;78.94;96829.51;107383;1276;137615;-70
2022/02/17 06:26:15;;;;;;;2.20;0.90;;;;;;;6.59;78.93;96843.48;107346;1277;108877;-70
2022/02/17 06:28:47;;;;;;;1.50;0.70;;;;;;;6.57;78.82;96835.69;106132;1276;108817;-69
2022/02/17 06:31:19;;;;;;;1.90;0.90;;;;;;;6.56;78.91;96830.77;105752;1276;138204;-69
2022/02/17 06:33:51;;;;;;;1.90;0.80;;;;;;;6.56;78.91;96832.66;105775;1276;97954;-70
2022/02/17 06:36:23;;;;;;;3.70;1.00;;;;;;;6.52;78.63;96828.42;105776;1276;137350;-70
2022/02/17 06:38:55;;;;;;;2.70;1.10;;;;;;;6.48;78.54;96848.76;105846;1276;109082;-69
2022/02/17 06:41:28;;;;;;;3.50;1.00;;;;;;;6.44;78.49;96861.58;105783;1276;109016;-69
2022/02/17 06:44:00;;;;;;;2.30;0.90;;;;;;;6.42;78.69;96810.65;105729;1276;137523;-70
2022/02/17 06:46:32;;;;;;;3.60;0.90;;;;;;;6.44;78.47;96819.48;105830;1276;97870;-69
2022/02/17 06:49:05;;;;;;;2.50;1.00;;;;;;;6.47;78.43;96816.55;105755;1276;138068;-70
2022/02/17 06:51:38;;;;;;;3.20;0.90;;;;;;;6.46;78.44;96818.85;105732;1276;109169;-70
2022/02/17 06:54:10;;;;;;;1.50;0.80;;;;;;;6.44;78.29;96830.19;105644;1276;139244;-69
2022/02/17 06:56:42;;;;;;;4.80;1.50;;;;;;;6.42;78.30;96830.32;105804;1276;97878;-70
2022/02/17 06:59:14;;;;;;;6.00;1.30;;;;;;;6.39;78.47;96823.48;105853;1276;97728;-69
2022/02/17 07:01:45;;;;;;;6.40;1.60;;;;;;;6.37;78.45;96774.11;105743;1276;137788;-70
2022/02/17 07:04:18;;;;;;;4.70;1.50;;;;;;;6.34;78.50;96733.43;107430;1275;109052;-70
2022/02/17 07:06:50;;;;;;;6.10;1.50;;;;;;;6.31;78.55;96766.05;107351;1276;138478;-70
2022/02/17 07:09:22;;;;;;;4.60;1.50;;;;;;;6.33;78.78;96792.65;107413;1276;96231;-70
2022/02/17 07:11:55;;;;;;;2.10;1.10;;;;;;;6.35;78.57;96780.14;107191;1276;138558;-70
2022/02/17 07:14:27;;;;;;;5.20;1.90;;;;;;;6.40;78.56;96793.09;107457;1276;110927;-70
2022/02/17 07:16:59;;;;;;;3.60;1.70;;;;;;;6.44;78.55;96824.72;107442;1275;107764;-70
2022/02/17 07:19:31;;;;;;;4.20;1.50;;;;;;;6.47;78.40;96848.96;107332;1276;138461;-70
2022/02/17 07:22:04;;;;;;;2.10;1.20;;;;;;;6.54;78.31;96864.91;106518;1274;98511;-70
2022/02/17 07:24:36;;;;;;;2.70;1.40;;;;;;;6.60;78.30;96868.08;105722;1276;137351;-70
2022/02/17 07:27:09;;;;;;;4.40;1.90;;;;;;;6.62;77.88;96867.61;107080;1276;109323;-70
2022/02/17 07:29:41;;;;;;;2.30;1.30;;;;;;;6.60;77.71;96862.19;107351;1276;138582;-70
2022/02/17 07:32:13;;;;;;;7.00;1.90;;;;;;;6.60;77.61;96861.03;107404;1276;109199;-70
2022/02/17 07:34:45;;;;;;;3.00;1.70;;;;;;;6.60;77.40;96874.81;106089;1276;97811;-70
2022/02/17 07:37:17;;;;;;;4.60;1.60;;;;;;;6.60;77.38;96875.83;105657;1276;139250;-70
2022/02/17 07:39:49;;;;;;;2.90;1.40;;;;;;;6.59;77.18;96881.41;105830;1276;111987;-69
2022/02/17 07:42:21;;;;;;;4.00;1.50;;;;;;;6.59;77.33;96874.67;105671;1276;137698;-70
2022/02/17 07:44:56;;;;;;;3.20;1.60;;;;;;;6.58;77.00;96872.05;105805;1276;108434;-70
2022/02/17 07:47:29;;;;;;;6.90;1.60;;;;;;;6.55;77.16;96882.91;105807;1276;97828;-70
2022/02/17 07:50:01;;;;;;;2.80;1.50;;;;;;;6.54;76.90;96870.94;105747;1276;137125;-69
2022/02/17 07:52:33;;;;;;;3.30;1.60;;;;;;;6.56;76.75;96861.33;105786;1275;112729;-70
2022/02/17 07:55:05;;;;;;;4.90;1.50;;;;;;;6.57;76.62;96866.95;105624;1277;138190;-69
2022/02/17 07:57:38;;;;;;;2.40;1.20;;;;;;;6.60;76.47;96866.20;105978;1276;106197;-69
2022/02/17 08:00:13;;;;;;;3.30;1.50;;;;;;;6.64;76.55;96865.59;105815;1276;138143;-69
2022/02/17 08:02:45;;;;;;;5.10;1.90;;;;;;;6.68;76.30;96867.42;107425;1276;95984;-70
2022/02/17 08:05:17;;;;;;;3.30;1.70;;;;;;;6.70;76.30;96854.81;107511;1275;111485;-70
2022/02/17 08:07:49;;;;;;;3.80;1.80;;;;;;;6.72;76.23;96864.70;106288;1276;138649;-69
2022/02/17 08:10:23;;;;;;;6.10;2.20;;;;;;;6.75;76.17;96881.77;105813;1276;107737;-72
2022/02/17 08:12:55;;;;;;;4.50;2.00;;;;;;;6.75;75.99;96890.17;105744;1276;137499;-69
2022/02/17 08:15:27;;;;;;;5.00;1.90;;;;;;;6.77;76.11;96889.88;105791;1276;98431;-70
2022/02/17 08:17:59;;;;;;;5.70;2.00;;;;;;;6.78;76.00;96889.24;105695;1276;138193;-70
2022/02/17 08:20:32;;;;;;;5.50;2.10;;;;;;;6.81;76.23;96888.73;107486;1276;108987;-70
2022/02/17 08:23:04;;;;;;;7.00;2.20;;;;;;;6.90;76.11;96892.05;107400;1276;107582;-70
2022/02/17 08:25:36;;;;;;;5.00;2.20;;;;;;;6.97;75.97;96877.71;106166;1274;138430;-69
2022/02/17 08:28:08;;;;;;;7.30;2.60;;;;;;;7.01;75.85;96860.38;105894;1276;97876;-70
2022/02/17 08:30:42;;;;;;;12.60;3.50;;;;;;;7.02;75.67;96873.45;105696;1276;137455;-69
2022/02/17 08:33:14;;;;;;;5.30;2.20;;;;;;;7.01;75.61;96875.55;105889;1276;108390;-70
2022/02/17 08:35:46;;;;;;;10.20;2.60;;;;;;;6.99;75.71;96874.11;105819;1276;139037;-70
2022/02/17 08:38:18;;;;;;;9.10;2.70;;;;;;;7.01;75.89;96859.53;105785;1276;97766;-70
2022/02/17 08:40:50;;;;;;;10.40;2.80;;;;;;;7.02;75.71;96836.81;105897;1276;97728;-71
2022/02/17 08:43:22;;;;;;;10.40;3.00;;;;;;;7.03;75.85;96842.56;105761;1276;137994;-70
2022/02/17 08:45:55;;;;;;;14.70;3.10;;;;;;;7.07;75.80;96844.02;105785;1278;108117;-71
2022/02/17 08:48:27;;;;;;;5.90;2.40;;;;;;;7.11;75.67;96848.92;105754;1276;139630;-70
2022/02/17 08:51:00;;;;;;;10.10;3.10;;;;;;;7.15;75.69;96847.23;105809;1276;97840;-70
2022/02/17 08:53:32;;;;;;;6.40;2.60;;;;;;;7.17;75.29;96853.98;105799;1277;97854;-70
2022/02/17 08:56:04;;;;;;;7.90;2.50;;;;;;;7.21;75.10;96851.48;105773;1276;137174;-70
2022/02/17 08:58:36;;;;;;;6.40;2.20;;;;;;;7.31;75.04;96854.21;105794;1276;107844;-70
2022/02/17 09:01:08;;;;;;;8.80;2.90;;;;;;;7.39;74.86;96852.73;106623;1276;140484;-71
2022/02/17 09:03:41;;;;;;;7.50;2.80;;;;;;;7.47;74.60;96846.58;107439;1276;96313;-70
2022/02/17 09:06:14;;;;;;;8.10;2.60;;;;;;;7.53;74.30;96839.91;107334;1276;138589;-71
2022/02/17 09:08:50;;;;;;;9.10;3.50;;;;;;;7.57;73.75;96841.05;106292;1276;112847;-70
2022/02/17 09:11:22;;;;;;;8.60;3.20;;;;;;;7.61;73.90;96837.11;105798;1276;107722;-70
2022/02/17 09:13:55;;;;;;;7.60;2.90;;;;;;;7.68;73.30;96839.04;105647;1276;137527;-70
2022/02/17 09:16:27;;;;;;;7.70;2.60;;;;;;;7.78;72.44;96829.13;105861;1276;97917;-72
2022/02/17 09:18:59;;;;;;;7.10;2.00;;;;;;;7.90;71.92;96840.48;105751;1276;138375;-72
2022/02/17 09:21:32;;;;;;;6.50;2.20;;;;;;;8.01;71.46;96839.27;105840;1276;111446;-70
2022/02/17 09:24:05;;;;;;;6.20;2.00;;;;;;;8.28;71.48;96836.67;105759;1276;139156;-70
2022/02/17 09:26:39;;;;;;;4.60;1.90;;;;;;;8.89;70.69;96831.41;105829;1276;108793;-71
2022/02/17 09:29:11;;;;;;;8.20;2.30;;;;;;;10.03;69.08;96818.58;105872;1276;98404;-71
2022/02/17 09:32:01;;;;;;;7.90;1.80;;;;;;;11.30;67.06;96807.07;105940;1276;137751;-71
2022/02/17 09:34:37;;;;;;;5.30;1.50;;;;;;;12.03;62.90;96804.43;105914;1276;111653;-72
2022/02/17 09:37:09;;;;;;;6.40;1.80;;;;;;;12.28;62.16;96809.31;105735;1276;137928;-70
2022/02/17 09:39:41;;;;;;;5.10;1.60;;;;;;;12.22;60.91;96822.20;106019;1276;108092;-69
2022/02/17 09:42:13;;;;;;;9.20;2.10;;;;;;;12.19;60.88;96823.89;105797;1276;137939;-70
2022/02/17 09:44:46;;;;;;;7.00;2.30;;;;;;;11.93;60.72;96818.63;105802;1278;97832;-70
2022/02/17 09:47:19;;;;;;;7.40;2.20;;;;;;;11.54;59.03;96814.48;105828;1276;111363;-70
2022/02/17 09:49:52;;;;;;;8.10;2.10;;;;;;;11.12;60.40;96832.25;105775;1276;137699;-71
2022/02/17 09:52:24;;;;;;;4.30;1.50;;;;;;;10.81;61.18;96825.90;105898;1276;107844;-70
2022/02/17 09:54:56;;;;;;;5.20;1.70;;;;;;;10.52;61.11;96828.63;105712;1276;137685;-69
2022/02/17 09:57:31;;;;;;;7.30;1.90;;;;;;;10.26;61.18;96829.65;105826;1276;97916;-69
2022/02/17 10:00:04;;;;;;;4.50;2.00;;;;;;;9.99;61.09;96830.17;105725;1276;137684;-70
2022/02/17 10:02:43;;;;;;;8.30;1.80;;;;;;;9.77;61.78;96832.04;105837;1276;107856;-70
2022/02/17 10:05:16;;;;;;;7.20;2.00;;;;;;;9.60;62.41;96838.29;105758;1278;107950;-70
2022/02/17 10:07:48;;;;;;;7.30;2.00;;;;;;;9.44;63.04;96842.33;105733;1276;137630;-70
2022/02/17 10:10:23;;;;;;;6.00;2.10;;;;;;;9.28;63.18;96835.16;105866;1276;97905;-70
2022/02/17 10:12:58;;;;;;;5.60;2.00;;;;;;;9.16;63.86;96848.98;105711;1276;137665;-70
2022/02/17 10:15:33;;;;;;;6.90;2.30;;;;;;;9.07;64.41;96849.02;105755;1276;107801;-70
2022/02/17 10:18:10;;;;;;;6.00;1.80;;;;;;;8.99;64.85;96842.53;105863;1276;138721;-69
2022/02/17 10:21:03;;;;;;;6.00;2.10;;;;;;;8.93;65.32;96833.64;107309;1276;96310;-70
2022/02/17 10:23:40;;;;;;;4.70;2.20;;;;;;;8.94;65.80;96829.27;107454;1276;95978;-70
2022/02/17 10:26:16;;;;;;;9.30;2.10;;;;;;;9.02;66.05;96826.36;106356;1276;137614;-69
2022/02/17 10:28:57;;;;;;;9.10;2.40;;;;;;;9.19;65.71;96828.63;105999;1276;109157;-69
2022/02/17 10:31:32;;;;;;;7.60;2.20;;;;;;;9.67;65.93;96820.53;105804;1279;137626;-70
2022/02/17 10:34:05;;;;;;;5.60;2.00;;;;;;;10.45;65.46;96806.96;107483;1276;96062;-70
2022/02/17 10:36:39;;;;;;;9.40;2.10;;;;;;;11.18;62.95;96808.86;106427;1276;137731;-69
2022/02/17 10:39:14;;;;;;;8.60;2.00;;;;;;;11.79;60.66;96800.78;107440;1276;111505;-70
2022/02/17 10:41:53;;;;;;;7.80;1.70;;;;;;;12.37;57.90;96788.90;107149;1276;109128;-70
2022/02/17 10:44:31;;;;;;;6.10;2.10;;;;;;;12.78;55.10;96780.66;105807;1276;138088;-69
2022/02/17 10:47:18;;;;;;;5.60;1.90;;;;;;;12.77;54.81;96789.05;105807;1276;97844;-71
2022/02/17 10:49:53;;;;;;;9.00;2.30;;;;;;;12.56;55.02;96793.25;105734;1276;137529;-70
2022/02/17 10:52:35;;;;;;;3.90;1.40;;;;;;;12.25;52.22;96792.17;105833;1275;112467;-69
2022/02/17 10:55:20;;;;;;;9.50;2.10;;;;;;;11.87;53.41;96801.27;107325;1276;138214;-70
2022/02/17 10:57:52;;;;;;;6.00;2.00;;;;;;;11.52;53.56;96800.23;107442;1276;107782;-70
2022/02/17 11:00:30;;;;;;;9.40;2.00;;;;;;;11.16;53.70;96800.37;106229;1276;139436;-69
2022/02/17 11:03:03;;;;;;;9.30;2.10;;;;;;;10.87;55.00;96799.83;105730;1276;97838;-69
2022/02/17 11:05:53;;;;;;;7.50;2.30;;;;;;;10.61;55.59;96801.83;105945;1276;112200;-72
2022/02/17 11:08:25;;;;;;;7.90;1.90;;;;;;;10.37;55.90;96805.11;105652;1276;137964;-69
2022/02/17 11:10:59;;;;;;;7.90;2.10;;;;;;;10.12;56.37;96800.91;106886;1276;108873;-70
2022/02/17 11:13:33;;;;;;;7.20;2.00;;;;;;;9.91;56.71;96801.20;106135;1276;138732;-69
2022/02/17 11:16:10;;;;;;;9.10;2.10;;;;;;;9.67;57.40;96827.46;106365;1276;97861;-70
2022/02/17 11:18:43;;;;;;;7.60;1.50;;;;;;;9.42;58.36;96838.02;107302;1274;138290;-70
2022/02/17 11:21:18;;;;;;;6.30;1.40;;;;;;;9.18;59.46;96844.36;107394;1276;109286;-70
2022/02/17 11:23:57;;;;;;;6.50;1.50;;;;;;;8.87;60.53;96847.49;107458;1276;107677;-69
2022/02/17 11:26:35;;;;;;;4.70;1.30;;;;;;;8.53;62.05;96840.50;107302;1276;137762;-69
2022/02/17 11:29:25;;;;;;;2.90;1.10;;;;;;;8.25;62.96;96837.45;107473;1276;95985;-69
2022/02/17 11:32:02;;;;;;;1.80;1.00;;;;;;;8.13;63.83;96851.02;105780;1276;138042;-69
2022/02/17 11:34:43;;;;;;;5.30;1.60;;;;;;;8.14;64.51;96853.70;105817;1276;107777;-70
2022/02/17 11:37:47;;;;;;;3.60;1.30;;;;;;;8.18;65.04;96862.21;105774;1276;138131;-69
2022/02/17 11:40:20;;;;;;;3.50;1.50;;;;;;;8.29;65.27;96845.77;106439;1276;98454;-69
2022/02/17 11:43:05;;;;;;;7.20;1.70;;;;;;;8.41;65.47;96843.48;107356;1276;137625;-69
2022/02/17 11:45:47;;;;;;;7.20;2.20;;;;;;;8.50;65.20;96847.45;107477;1276;109536;-69
2022/02/17 11:48:35;;;;;;;8.50;2.10;;;;;;;8.54;64.83;96827.63;107162;1276;137783;-70
2022/02/17 11:51:14;;;;;;;;;;;;;;;8.55;65.18;96829.08;107390;1276;109002;-70
2022/02/17 11:53:47;;;;;;;6.40;2.00;;;;;;;8.59;64.76;96826.13;107415;1276;96152;-69
2022/02/17 11:56:34;;;;;;;7.70;2.80;;;;;;;8.61;64.46;96818.21;107225;1276;142648;-69
2022/02/17 11:59:27;;;;;;;7.00;2.20;;;;;;;8.61;64.24;96821.66;107352;1276;111487;-70
2022/02/17 12:02:01;;;;;;;8.20;2.40;;;;;;;8.62;63.82;96810.19;107332;1275;138838;-71
2022/02/17 12:05:16;;;;;;;6.60;2.20;;;;;;;8.62;63.93;96824.56;107401;1276;107699;-70
2022/02/17 12:07:49;;;;;;;10.70;2.10;;;;;;;8.63;63.46;96820.29;107260;1276;138537;-70
2022/02/17 12:10:31;;;;;;;9.10;2.10;;;;;;;8.61;63.30;96818.24;107456;1275;97283;-70
2022/02/17 12:13:05;;;;;;;6.50;2.20;;;;;;;8.57;63.39;96831.00;107261;1276;137208;-70
2022/02/17 12:15:43;;;;;;;9.60;2.30;;;;;;;8.51;63.39;96814.00;107433;1276;107807;-70
2022/02/17 12:18:15;;;;;;;7.80;2.60;;;;;;;8.43;64.01;96836.73;107247;1275;138160;-70
2022/02/17 12:20:47;;;;;;;8.10;2.20;;;;;;;8.35;64.40;96846.70;107274;1276;96971;-70
2022/02/17 12:23:20;;;;;;;10.50;2.60;;;;;;;8.29;65.00;96854.14;107382;1276;96176;-71
2022/02/17 12:25:54;;;;;;;8.60;2.70;;;;;;;8.23;65.54;96868.71;107092;1276;139355;-71
2022/02/17 12:28:36;;;;;;;9.60;2.10;;;;;;;8.15;65.94;96861.70;107316;1277;107803;-71
2022/02/17 12:31:08;;;;;;;10.60;2.60;;;;;;;8.09;65.78;96857.21;107199;1275;138951;-72
2022/02/17 12:33:40;;;;;;;7.30;2.00;;;;;;;8.05;65.96;96865.30;107385;1276;97084;-71
2022/02/17 12:36:14;;;;;;;8.00;2.50;;;;;;;8.00;65.72;96861.36;107371;1276;137512;-71
2022/02/17 12:38:46;;;;;;;7.90;2.00;;;;;;;7.97;65.55;96867.27;107302;1277;111434;-71